Terminal Aerodrome Forecast
Issued by NWS Corpus Christi, TX

Home | Current Version | Previous Version | Text Only | Print | Product List | Glossary On
Versions: 1 2 3 4 5 6 7 8 9 10 11 12 13 14
000
FTUS44 KCRP 291720
TAFCRP
TAF
KCRP 291720Z 2918/3018 13014KT P6SM VCTS SCT035CB BKN200
     FM291900 13015KT P6SM SCT035 BKN200
     FM300100 14011KT P6SM FEW015 SCT200
     FM301300 17007KT P6SM SCT022 SCT035=

USA.gov is the U.S. government's official web portal to all federal, state and local government web resources and services.